Pagina principale
METAR-TAF:

METAR-TAF

Aeroporti :

Aeroporto di Guernsey

Guernsey,

latitudine: 49-26N, longitudine: 002-36W, altezza: 102 m

Osservazione

Il bollettino è stato emesso 27 minuti fa, alle 16:50 UTC
Vento 13 kt da est/nord-est con raffiche fino a 23 kt
Temperature 19°C
Umidità 49%
Pressione 1018 hPa
Visibilità 10 km o più
nessuna nube inferiore a 1500 m e nessun cumulonembo

METAR: EGJB 311650Z 06013G23KT CAVOK 19/08 Q1018

Ora: 18:17 (17:17 UTC)

Previsione

Il bollettino è stato emesso 3 ore e 20 minuti fa, alle 13:57 UTC
Previsione valida dal 31 alle 15 UTC al 01 alle 00 UTC
Vento 14 kt da est/nord-est
Visibilità 10 km o più
nessuna nube inferiore a 1500 m e nessun cumulonembo
Temporaneamente
dal 31 alle 15 UTC al 01 alle 00 UTC
Vento 18 kt da est/nord-est con raffiche fino a 28 kt

TAF: EGJB 311357Z 3115/0100 07014KT CAVOK TEMPO 3115/0100 07018G28KT

Osservazioni e previsioni meteorologiche di più di 4000 aeroporti (messaggi METAR e TAF).

Le stazioni disponibili sono rappresentate dai dischi gialli e rossi sulla carta.

Puntare il mouse per vedere il nome della stazione.

Clicca sopra per visualizzare le osservazioni e previsioni meteorologiche.

Per cambiare la mappa : fare clic sui pulsanti verdi con una croce nera per ingrandire, il pulsante verde con un trattino per diminuire, o sulla freccia verde per le mappe adiacenti.


METAR-TAF: